createdAt,value
2018-09-03T03:42:34.215Z,17.30
2018-09-03T03:45:08.256Z,17.30
2018-09-03T03:47:37.778Z,17.30
2018-09-03T03:50:10.028Z,17.30
2018-09-03T03:52:39.014Z,17.30
2018-09-03T03:55:10.211Z,17.30
2018-09-03T03:57:39.192Z,17.30
2018-09-03T04:00:17.672Z,17.20
2018-09-03T04:02:46.607Z,17.20
2018-09-03T04:05:15.282Z,17.30
2018-09-03T04:07:47.114Z,17.40
2018-09-03T04:10:17.101Z,17.40
2018-09-03T04:12:51.458Z,15.60
2018-09-03T04:15:20.327Z,17.40
2018-09-03T04:17:55.053Z,17.40
2018-09-03T04:20:24.820Z,17.40
2018-09-03T04:22:55.333Z,17.40
2018-09-03T04:25:24.610Z,17.30
2018-09-03T04:27:53.715Z,17.30
2018-09-03T04:30:22.681Z,17.30
2018-09-03T04:32:51.482Z,17.20
2018-09-03T04:35:20.172Z,17.20
2018-09-03T04:37:48.971Z,17.20
2018-09-03T04:40:18.386Z,17.20
2018-09-03T04:42:51.153Z,17.20
2018-09-03T04:45:25.221Z,17.20
2018-09-03T04:47:56.031Z,17.20
2018-09-03T04:51:54.545Z,17.20
2018-09-03T04:54:25.462Z,17.20
2018-09-03T04:56:56.341Z,17.30
2018-09-03T04:59:25.290Z,17.30
2018-09-03T05:01:57.388Z,17.20
2018-09-03T05:04:26.372Z,17.20
2018-09-03T05:06:57.610Z,17.20
2018-09-03T05:09:27.271Z,17.20
2018-09-03T05:11:56.073Z,17.30
2018-09-03T05:14:24.735Z,17.30
2018-09-03T05:16:53.470Z,17.40
2018-09-03T05:19:22.786Z,17.50
2018-09-03T05:21:57.083Z,17.50
2018-09-03T05:24:25.787Z,17.50
2018-09-03T05:26:58.289Z,17.50
2018-09-03T05:29:32.247Z,17.50
2018-09-03T05:32:01.155Z,17.50
2018-09-03T05:34:29.995Z,17.50
2018-09-03T05:37:03.494Z,17.50
2018-09-03T05:39:32.452Z,17.60
2018-09-03T05:42:06.096Z,17.60
2018-09-03T05:44:35.845Z,17.70
2018-09-03T05:47:08.491Z,17.70
2018-09-03T05:49:39.470Z,17.80
2018-09-03T05:52:10.476Z,17.80
2018-09-03T05:54:43.182Z,17.80
2018-09-03T05:57:12.090Z,17.80
2018-09-03T05:59:42.107Z,17.70
2018-09-03T06:02:12.205Z,17.70
2018-09-03T06:04:43.343Z,17.70
2018-09-03T06:07:13.967Z,17.70
2018-09-03T06:09:42.823Z,17.80
2018-09-03T06:12:12.163Z,17.80
2018-09-03T06:14:41.290Z,17.80
2018-09-03T06:17:15.018Z,17.80
2018-09-03T06:19:44.369Z,17.80
2018-09-03T06:25:15.438Z,17.80
2018-09-03T06:27:46.606Z,17.80
2018-09-03T06:30:15.504Z,17.80
2018-09-03T06:32:44.349Z,17.80
2018-09-03T06:35:25.167Z,17.80
2018-09-03T06:37:55.100Z,17.70
2018-09-03T06:43:08.792Z,17.60
2018-09-03T06:48:28.627Z,17.50
2018-09-03T06:51:06.998Z,17.50
2018-09-03T06:53:44.048Z,17.50
2018-09-03T06:56:22.071Z,17.60
2018-09-03T06:58:50.994Z,17.70
2018-09-03T07:01:19.822Z,17.70
2018-09-03T07:03:49.479Z,17.80
2018-09-03T07:06:20.018Z,17.80
2018-09-03T07:08:49.837Z,17.90
2018-09-03T07:11:28.904Z,17.90
2018-09-03T07:14:08.435Z,17.90
2018-09-03T07:16:41.189Z,17.90
2018-09-03T07:19:09.967Z,17.90
2018-09-03T07:21:40.409Z,17.90
2018-09-03T07:24:12.580Z,17.90
2018-09-03T07:26:44.187Z,17.90
2018-09-03T07:29:16.794Z,17.90
2018-09-03T07:31:45.877Z,17.90
2018-09-03T07:34:21.098Z,17.90
2018-09-03T07:36:50.476Z,17.90
2018-09-03T07:39:39.097Z,18.00
2018-09-03T07:42:09.242Z,18.00
2018-09-03T07:45:06.666Z,18.00
2018-09-03T07:47:36.866Z,18.10
2018-09-03T07:50:12.020Z,18.20
2018-09-03T07:52:41.335Z,18.20
2018-09-03T07:55:14.061Z,18.30
2018-09-03T07:57:46.991Z,18.40
2018-09-03T08:00:18.614Z,18.40
2018-09-03T08:02:47.841Z,18.50
2018-09-03T08:05:21.263Z,18.60
2018-09-03T08:08:00.686Z,18.60
2018-09-03T08:13:25.727Z,18.60
2018-09-03T08:15:59.563Z,18.70
2018-09-03T08:18:29.214Z,18.90
2018-09-03T08:20:57.971Z,19.10
2018-09-03T08:23:30.863Z,19.40
2018-09-03T08:25:59.547Z,19.40
2018-09-03T08:28:28.419Z,19.40
2018-09-03T08:30:57.191Z,19.30
2018-09-03T08:33:29.838Z,19.30
2018-09-03T08:36:07.391Z,19.40
2018-09-03T08:38:38.890Z,19.30
2018-09-03T08:41:20.177Z,19.30
2018-09-03T08:43:52.386Z,19.30
2018-09-03T08:46:29.089Z,19.30
2018-09-03T08:48:59.176Z,19.10
2018-09-03T08:51:30.407Z,19.00
2018-09-03T08:54:02.498Z,18.80
2018-09-03T08:56:33.599Z,18.70
2018-09-03T09:01:38.352Z,18.60
2018-09-03T09:04:15.556Z,18.70
2018-09-03T09:06:49.331Z,18.80
2018-09-03T09:09:20.396Z,18.80
2018-09-03T09:11:59.335Z,18.90
2018-09-03T09:14:37.148Z,18.90
2018-09-03T09:17:11.578Z,18.80
2018-09-03T09:19:40.868Z,18.80
2018-09-03T09:22:11.972Z,18.80
2018-09-03T09:24:40.805Z,18.70
2018-09-03T09:27:09.722Z,18.70
2018-09-03T09:29:40.884Z,18.70
2018-09-03T09:32:22.125Z,18.70
2018-09-03T09:34:54.166Z,18.80
2018-09-03T09:37:22.905Z,18.90
2018-09-03T09:39:57.053Z,18.40
2018-09-03T09:42:36.205Z,18.90
2018-09-03T09:45:20.312Z,19.00
2018-09-03T09:47:49.379Z,19.00
2018-09-03T09:50:30.444Z,19.20
2018-09-03T09:53:22.999Z,19.30
2018-09-03T09:56:01.768Z,19.30
2018-09-03T09:58:35.945Z,19.30
2018-09-03T10:01:19.979Z,19.30
2018-09-03T10:03:54.341Z,19.50
2018-09-03T10:06:28.283Z,19.50
2018-09-03T10:09:02.831Z,19.60
2018-09-03T10:14:51.748Z,19.50
2018-09-03T10:21:02.568Z,19.30
2018-09-03T10:50:43.358Z,20.20
2018-09-03T10:53:29.267Z,20.20
2018-09-03T10:56:08.108Z,20.30
2018-09-03T10:58:49.236Z,20.50
2018-09-03T11:01:27.344Z,20.80
2018-09-03T11:04:01.886Z,21.00
2018-09-03T11:06:42.313Z,21.10
2018-09-03T11:09:18.332Z,21.20
2018-09-03T11:11:54.699Z,21.20
2018-09-03T11:14:31.004Z,21.10
2018-09-03T11:17:08.336Z,21.10
2018-09-03T11:19:49.103Z,21.10
2018-09-03T11:22:23.195Z,21.00
2018-09-03T11:24:57.191Z,20.90
2018-09-03T11:27:36.452Z,21.00
2018-09-03T11:30:13.315Z,21.10
2018-09-03T11:33:09.463Z,21.30
2018-09-03T11:36:16.935Z,21.30
2018-09-03T11:45:49.900Z,21.10
2018-09-03T11:48:24.162Z,21.00
2018-09-03T11:51:20.955Z,21.00
2018-09-03T11:53:58.474Z,21.40
2018-09-03T11:56:36.777Z,21.30
2018-09-03T11:59:16.631Z,21.20
2018-09-03T18:41:27.589Z,17.70
2018-09-03T18:53:04.084Z,17.40
2018-09-03T18:55:39.467Z,17.40
2018-09-03T18:58:13.109Z,17.40
2018-09-03T19:00:54.003Z,17.40
2018-09-03T19:03:32.230Z,17.40
2018-09-03T19:08:51.599Z,17.30
2018-09-03T19:11:28.358Z,17.40
2018-09-03T19:17:00.119Z,17.40
2018-09-03T19:19:43.968Z,17.40
2018-09-03T19:22:20.188Z,17.40
2018-09-03T19:25:00.760Z,17.40
2018-09-03T19:27:42.638Z,17.40
2018-09-03T19:30:21.452Z,19.20
2018-09-03T19:32:57.020Z,17.30
2018-09-03T19:35:33.394Z,17.20
2018-09-03T19:38:14.685Z,17.20
2018-09-03T19:40:49.407Z,17.10
2018-09-03T19:43:28.337Z,17.10
2018-09-03T19:46:05.612Z,17.10
2018-09-03T19:48:39.566Z,17.10
2018-09-03T19:51:13.380Z,17.20
2018-09-03T19:53:49.268Z,17.20
2018-09-03T19:56:28.161Z,17.20
2018-09-03T19:59:05.514Z,17.20
2018-09-03T20:01:41.018Z,17.30
2018-09-03T20:04:24.099Z,17.30
2018-09-03T20:06:58.054Z,17.30
2018-09-03T20:09:30.839Z,17.30
2018-09-03T20:12:08.015Z,17.30
2018-09-03T20:14:47.258Z,17.30
